createdAt,value
2018-03-27T00:00:21.936Z,39.99
2018-03-27T00:01:55.657Z,40.18
2018-03-27T00:03:22.518Z,40.28
2018-03-27T00:04:20.087Z,40.28
2018-03-27T00:05:56.803Z,40.18
2018-03-27T00:07:13.316Z,39.51
2018-03-27T00:19:14.234Z,40.18
2018-03-27T00:19:54.828Z,40.28
2018-03-27T00:21:31.352Z,40.28
2018-03-27T00:22:16.300Z,40.18
2018-03-27T00:23:49.342Z,40.18
2018-03-27T00:25:14.743Z,40.37
2018-03-27T00:26:11.542Z,40.28
2018-03-27T00:27:47.715Z,40.28
2018-03-27T00:29:10.723Z,39.99
2018-03-27T00:30:10.662Z,40.18
2018-03-27T00:32:48.035Z,39.70
2018-03-27T00:34:02.641Z,39.61
2018-03-27T00:35:25.064Z,39.51
2018-03-27T00:36:27.962Z,39.70
2018-03-27T00:38:02.992Z,39.61
2018-03-27T00:38:45.542Z,39.41
2018-03-27T00:40:19.600Z,39.61
2018-03-27T00:41:04.086Z,39.70
2018-03-27T00:42:38.787Z,39.61
2018-03-27T00:43:22.630Z,39.70
2018-03-27T00:44:58.588Z,39.61
2018-03-27T00:46:24.728Z,39.51
2018-03-27T00:47:20.740Z,39.70
2018-03-27T00:59:00.304Z,39.70
2018-03-27T00:59:57.141Z,39.99
2018-03-27T01:01:36.780Z,39.70
2018-03-27T01:02:54.578Z,39.61
2018-03-27T01:04:17.473Z,39.79
2018-03-27T01:05:54.605Z,39.61
2018-03-27T01:06:57.436Z,39.87
2018-03-27T01:08:32.468Z,40.28
2018-03-27T01:10:01.480Z,40.18
2018-03-27T01:10:54.552Z,40.18
2018-03-27T01:12:30.500Z,40.08
2018-03-27T01:13:14.077Z,40.08
2018-03-27T01:14:49.071Z,40.18
2018-03-27T01:16:12.719Z,40.37
2018-03-27T01:17:08.225Z,40.18
2018-03-27T01:19:45.649Z,39.99
2018-03-27T01:21:01.931Z,40.18
2018-03-27T01:21:47.057Z,40.18
2018-03-27T01:24:12.416Z,40.18
2018-03-27T01:24:55.641Z,39.99
2018-03-27T01:26:29.340Z,39.89
2018-03-27T01:27:14.141Z,40.06
2018-03-27T01:28:49.209Z,40.18
2018-03-27T01:30:12.425Z,40.18
2018-03-27T01:32:04.370Z,40.16
2018-03-27T01:33:27.794Z,40.18
2018-03-27T01:36:14.782Z,40.28
2018-03-27T01:36:59.194Z,40.28
2018-03-27T01:38:34.591Z,40.35
2018-03-27T01:40:01.266Z,40.16
2018-03-27T01:40:56.483Z,40.06
2018-03-27T01:42:33.364Z,40.18
2018-03-27T01:44:02.554Z,40.28
2018-03-27T01:45:37.371Z,40.18
2018-03-27T01:46:34.227Z,40.35
2018-03-27T01:48:09.234Z,40.37
2018-03-27T01:49:29.548Z,40.25
2018-03-27T01:51:25.184Z,40.25
2018-03-27T01:52:46.725Z,40.16
2018-03-27T01:53:46.611Z,40.25
2018-03-27T01:55:24.795Z,40.25
2018-03-27T01:57:56.238Z,40.25
2018-03-27T01:59:21.153Z,40.16
2018-03-27T02:00:17.308Z,40.16
2018-03-27T02:01:36.321Z,40.25
2018-03-27T02:02:33.133Z,40.35
2018-03-27T02:04:11.043Z,40.35
2018-03-27T02:05:33.612Z,40.35
2018-03-27T02:06:34.177Z,40.25
2018-03-27T02:08:06.536Z,40.16
2018-03-27T02:09:37.625Z,40.25
2018-03-27T02:11:06.976Z,40.35
2018-03-27T02:12:09.889Z,40.16
2018-03-27T02:13:44.841Z,40.25
2018-03-27T02:14:28.395Z,40.16
2018-03-27T02:16:02.707Z,40.16
2018-03-27T02:16:46.932Z,40.25
2018-03-27T02:18:22.874Z,40.06
2018-03-27T02:19:06.671Z,40.16
2018-03-27T02:26:50.084Z,40.06
2018-03-27T02:28:42.854Z,40.16
2018-03-27T02:30:11.060Z,40.06
2018-03-27T02:31:11.092Z,39.97
2018-03-27T02:32:47.200Z,40.25
2018-03-27T02:34:08.579Z,40.25
2018-03-27T02:36:03.737Z,40.35
2018-03-27T02:37:25.794Z,40.35
2018-03-27T02:38:27.489Z,40.35
2018-03-27T02:40:41.448Z,40.35
2018-03-27T02:42:34.759Z,40.35
2018-03-27T02:44:01.309Z,40.45
2018-03-27T02:45:03.001Z,40.45
2018-03-27T02:46:38.042Z,40.45
2018-03-27T02:47:21.525Z,40.35
2018-03-27T02:48:55.964Z,40.35
2018-03-27T02:50:20.515Z,40.45
2018-03-27T02:52:14.171Z,40.35
2018-03-27T02:53:36.550Z,40.55
2018-03-27T02:54:39.352Z,40.25
2018-03-27T02:57:12.867Z,40.55
2018-03-27T02:58:31.547Z,40.35
2018-03-27T02:59:47.000Z,40.35
2018-03-27T03:35:47.700Z,40.55
2018-03-27T03:37:03.040Z,40.73
2018-03-27T03:38:27.713Z,40.35
2018-03-27T03:39:27.726Z,40.45
2018-03-27T03:41:03.929Z,40.64
2018-03-27T03:42:27.146Z,40.35
2018-03-27T03:44:20.019Z,40.55
2018-03-27T03:45:05.436Z,40.64
2018-03-27T03:46:40.331Z,40.73
2018-03-27T03:47:23.981Z,40.64
2018-03-27T03:48:58.622Z,40.64
2018-03-27T03:49:42.484Z,40.73
2018-03-27T03:52:07.702Z,40.64
2018-03-27T03:52:51.120Z,40.52
2018-03-27T03:54:28.896Z,40.55
2018-03-27T03:56:48.344Z,40.64
2018-03-27T03:58:03.375Z,40.83
2018-03-27T03:59:28.848Z,40.73
2018-03-27T04:01:01.300Z,40.55
2018-03-27T04:02:01.212Z,40.52
2018-03-27T04:03:39.139Z,40.62
2018-03-27T04:05:01.827Z,40.52
2018-03-27T04:06:52.480Z,40.52
2018-03-27T04:07:41.815Z,40.62
2018-03-27T04:09:20.668Z,40.64
2018-03-27T04:10:01.400Z,40.72
2018-03-27T04:11:38.062Z,40.81
2018-03-27T04:14:47.907Z,40.73
2018-03-27T04:16:02.271Z,40.81
2018-03-27T04:17:55.990Z,40.62
2018-03-27T04:19:31.235Z,40.62
2018-03-27T04:20:23.303Z,40.52
2018-03-27T04:21:58.189Z,40.62
2018-03-27T04:25:53.075Z,40.62
2018-03-27T04:26:52.778Z,40.81
2018-03-27T04:27:55.574Z,40.62
2018-03-27T04:29:30.775Z,40.52
2018-03-27T04:30:14.102Z,40.52
2018-03-27T04:31:49.164Z,40.62
2018-03-27T04:33:13.344Z,40.62
2018-03-27T04:35:09.123Z,40.62
2018-03-27T04:36:25.846Z,40.52
2018-03-27T04:37:10.588Z,40.62
2018-03-27T04:38:42.799Z,40.91
2018-03-27T04:39:29.254Z,40.81
2018-03-27T04:41:02.050Z,40.62
2018-03-27T04:41:47.589Z,40.52
2018-03-27T04:43:22.869Z,40.62
2018-03-27T04:44:07.124Z,40.91
2018-03-27T04:45:42.698Z,40.72
2018-03-27T04:47:11.234Z,40.91
2018-03-27T04:48:04.939Z,41.29
2018-03-27T04:49:42.674Z,41.67
2018-03-27T04:51:01.278Z,41.67
2018-03-27T04:52:18.451Z,41.87
2018-03-27T04:53:01.704Z,42.16
2018-03-27T04:54:36.726Z,42.73
2018-03-27T04:55:58.091Z,42.94
2018-03-27T04:56:58.848Z,43.23
2018-03-27T04:58:34.971Z,43.23
2018-03-27T04:59:18.548Z,43.14
2018-03-27T05:00:55.231Z,43.07
2018-03-27T05:02:11.840Z,42.49
2018-03-27T05:03:39.044Z,43.16
2018-03-27T05:04:35.248Z,43.64
2018-03-27T05:06:10.453Z,42.77
2018-03-27T05:06:53.667Z,41.74
2018-03-27T05:08:26.346Z,42.22
2018-03-27T05:09:12.241Z,41.93
2018-03-27T05:10:47.442Z,41.64
2018-03-27T05:12:14.993Z,41.74
2018-03-27T05:13:09.582Z,40.99
2018-03-27T05:14:43.883Z,40.70
2018-03-27T05:16:31.351Z,40.31
2018-03-27T05:17:56.816Z,40.51
2018-03-27T05:18:47.294Z,40.89
2018-03-27T05:20:22.237Z,40.99
2018-03-27T05:21:45.759Z,40.70
2018-03-27T05:23:38.044Z,39.64
2018-03-27T05:24:23.988Z,40.03
2018-03-27T05:25:57.270Z,39.37
2018-03-27T05:26:42.509Z,39.09
2018-03-27T05:28:17.608Z,39.66
2018-03-27T05:29:01.126Z,39.66
2018-03-27T05:30:43.125Z,39.76
2018-03-27T05:32:14.938Z,39.47
2018-03-27T05:33:44.127Z,40.05
2018-03-27T05:35:13.520Z,40.05
2018-03-27T05:37:59.706Z,39.95
2018-03-27T05:39:28.473Z,39.66
2018-03-27T05:40:31.296Z,39.56
2018-03-27T05:42:05.839Z,39.66
2018-03-27T05:43:29.247Z,39.47
2018-03-27T05:44:29.393Z,39.39
2018-03-27T05:46:05.563Z,39.68
2018-03-27T05:47:37.519Z,39.39
2018-03-27T05:49:03.249Z,39.01
2018-03-27T05:50:06.101Z,38.91
2018-03-27T05:51:41.979Z,38.91
2018-03-27T05:52:25.538Z,39.49
2018-03-27T05:54:00.149Z,39.20
2018-03-27T05:55:30.561Z,38.81
2018-03-27T05:56:23.744Z,39.39
2018-03-27T05:57:59.784Z,39.20
2018-03-27T05:58:43.190Z,39.01
2018-03-27T06:00:18.202Z,39.11
2018-03-27T06:01:01.788Z,39.11
2018-03-27T06:02:36.026Z,39.11
2018-03-27T06:04:00.297Z,38.81
2018-03-27T06:04:59.971Z,38.91
2018-03-27T06:06:35.135Z,39.39
2018-03-27T06:07:18.528Z,39.01
2018-03-27T06:08:54.521Z,38.91
2018-03-27T06:10:26.448Z,38.81
2018-03-27T06:11:17.566Z,38.81
2018-03-27T06:12:51.783Z,38.81
2018-03-27T06:14:20.356Z,38.91
2018-03-27T06:15:50.675Z,38.72
2018-03-27T06:17:44.091Z,38.53
2018-03-27T06:19:11.344Z,38.53
2018-03-27T06:21:06.810Z,38.62
2018-03-27T06:21:50.234Z,38.53
2018-03-27T06:23:27.937Z,38.91
2018-03-27T06:24:39.120Z,38.53
2018-03-27T06:26:12.245Z,38.81
2018-03-27T06:28:43.790Z,38.53
2018-03-27T06:30:43.587Z,38.72
2018-03-27T06:32:01.344Z,38.53
2018-03-27T06:32:45.030Z,38.72
2018-03-27T06:34:20.046Z,38.53
2018-03-27T06:35:52.247Z,38.72
2018-03-27T06:36:43.160Z,38.53
2018-03-27T06:38:19.315Z,38.91
2018-03-27T06:39:02.693Z,38.53
2018-03-27T06:40:40.385Z,38.91
2018-03-27T06:41:58.457Z,38.79
2018-03-27T06:43:22.466Z,38.72
2018-03-27T06:44:17.425Z,38.89
2018-03-27T06:45:54.543Z,38.79
2018-03-27T06:46:38.942Z,38.89
2018-03-27T06:48:14.168Z,38.60
2018-03-27T06:48:57.473Z,38.99
2018-03-27T06:50:34.200Z,38.60
2018-03-27T06:51:31.825Z,39.37
2018-03-27T06:52:34.584Z,39.37
2018-03-27T06:54:08.613Z,38.99
2018-03-27T06:55:36.632Z,38.60
2018-03-27T06:56:32.756Z,38.99
2018-03-27T06:59:08.464Z,38.70
2018-03-27T07:00:22.653Z,38.70
2018-03-27T07:01:06.624Z,38.70
2018-03-27T07:02:42.577Z,38.89
2018-03-27T07:03:26.191Z,38.60
2018-03-27T07:05:00.685Z,38.60
2018-03-27T07:05:44.723Z,38.79
2018-03-27T07:08:56.208Z,39.09
2018-03-27T07:15:02.653Z,39.09
2018-03-27T07:16:04.510Z,39.28
2018-03-27T07:17:07.237Z,39.09
2018-03-27T07:18:42.247Z,39.06
2018-03-27T07:20:07.701Z,39.06
2018-03-27T07:21:05.453Z,38.99
2018-03-27T07:22:40.410Z,38.97
2018-03-27T07:23:24.488Z,39.16
2018-03-27T07:25:00.667Z,38.97
2018-03-27T07:26:17.584Z,38.87
2018-03-27T07:27:02.135Z,38.97
2018-03-27T07:28:38.685Z,38.68
2018-03-27T07:29:55.603Z,39.16
2018-03-27T07:30:39.248Z,39.16
2018-03-27T07:32:15.933Z,38.87
2018-03-27T07:33:34.021Z,39.06
2018-03-27T07:34:58.314Z,39.16
2018-03-27T07:35:56.095Z,38.97
2018-03-27T07:37:32.041Z,39.06
2018-03-27T07:38:57.819Z,39.45
2018-03-27T07:39:54.090Z,39.06
2018-03-27T07:42:29.709Z,39.06
2018-03-27T07:43:43.505Z,39.06
2018-03-27T07:44:27.900Z,38.78
2018-03-27T07:45:52.730Z,38.87
2018-03-27T07:47:23.286Z,39.45
2018-03-27T07:49:14.107Z,39.45
2018-03-27T07:50:40.931Z,39.16
2018-03-27T07:54:19.915Z,39.36
2018-03-27T07:55:03.361Z,38.78
2018-03-27T07:56:38.855Z,39.36
2018-03-27T07:57:22.024Z,39.26
2018-03-27T07:58:57.148Z,39.26
2018-03-27T08:00:19.905Z,39.36
2018-03-27T08:01:17.213Z,38.78
2018-03-27T08:02:56.342Z,38.78
2018-03-27T08:03:39.678Z,38.87
2018-03-27T08:05:14.586Z,38.87
2018-03-27T08:05:58.209Z,38.87
2018-03-27T08:07:35.901Z,39.16
2018-03-27T08:08:51.764Z,39.26
2018-03-27T08:09:36.355Z,38.87
2018-03-27T08:12:10.637Z,39.06
2018-03-27T08:13:27.124Z,38.78
2018-03-27T08:14:10.198Z,39.06
2018-03-27T08:15:46.941Z,39.06
2018-03-27T08:17:04.758Z,38.59
2018-03-27T08:17:48.390Z,39.26
2018-03-27T08:19:25.191Z,38.59
2018-03-27T08:20:41.900Z,38.59
2018-03-27T08:21:26.641Z,38.87
2018-03-27T08:23:03.282Z,38.87
2018-03-27T08:24:21.168Z,38.78
2018-03-27T08:25:04.676Z,38.87
2018-03-27T08:28:19.088Z,38.78
2018-03-27T08:29:03.288Z,38.78
2018-03-27T08:30:38.553Z,38.78
2018-03-27T08:32:02.062Z,38.78
2018-03-27T08:32:58.745Z,38.78
2018-03-27T08:34:41.207Z,38.78
2018-03-27T08:35:53.058Z,38.68
2018-03-27T08:37:15.689Z,38.68
2018-03-27T08:39:12.954Z,38.49
2018-03-27T08:39:55.993Z,38.49
2018-03-27T08:42:30.437Z,38.87
2018-03-27T08:43:51.580Z,38.78
2018-03-27T08:45:05.190Z,38.68
2018-03-27T08:45:49.457Z,38.68
2018-03-27T08:48:22.935Z,38.87
2018-03-27T08:49:22.072Z,38.59
2018-03-27T08:51:23.037Z,38.49
2018-03-27T08:52:04.506Z,38.87
2018-03-27T08:53:41.381Z,38.49
2018-03-27T08:54:57.991Z,38.78
2018-03-27T08:55:42.755Z,38.87
2018-03-27T08:58:18.084Z,38.87
2018-03-27T08:59:32.876Z,38.68
2018-03-27T09:00:17.721Z,38.68
2018-03-27T09:01:53.728Z,38.87
2018-03-27T09:02:37.220Z,38.49
2018-03-27T09:04:11.301Z,38.49
2018-03-27T09:05:33.373Z,38.78
2018-03-27T09:06:32.443Z,38.68
2018-03-27T09:08:17.414Z,38.78
2018-03-27T09:09:39.558Z,38.68
2018-03-27T09:10:34.486Z,39.06
2018-03-27T09:12:09.415Z,38.68
2018-03-27T09:12:53.043Z,38.78
2018-03-27T09:14:27.891Z,38.49
2018-03-27T09:15:11.600Z,38.68
2018-03-27T09:16:49.005Z,38.49
2018-03-27T09:17:31.079Z,38.49
2018-03-27T09:20:03.650Z,38.78
2018-03-27T09:20:47.270Z,38.78
2018-03-27T09:22:22.266Z,38.39
2018-03-27T09:23:55.494Z,38.68
2018-03-27T09:24:45.489Z,38.49
2018-03-27T09:29:34.039Z,38.20
2018-03-27T09:30:33.125Z,38.29
2018-03-27T09:52:35.815Z,38.01
2018-03-27T09:53:11.566Z,38.12
2018-03-27T09:54:44.557Z,38.01
2018-03-27T09:55:30.136Z,38.22
2018-03-27T09:57:06.028Z,38.12
2018-03-27T09:57:49.688Z,38.02
2018-03-27T09:59:27.392Z,38.02
2018-03-27T10:00:45.411Z,38.02
2018-03-27T10:02:06.639Z,38.10
2018-03-27T10:03:07.423Z,38.02
2018-03-27T10:04:43.560Z,38.20
2018-03-27T10:06:09.497Z,38.10
2018-03-27T10:07:05.524Z,38.10
2018-03-27T10:08:43.240Z,38.02
2018-03-27T10:10:01.071Z,38.01
2018-03-27T10:10:44.682Z,38.02
2018-03-27T10:12:25.891Z,37.93
2018-03-27T10:13:51.403Z,38.01
2018-03-27T10:15:19.367Z,38.02
2018-03-27T10:17:18.269Z,38.02
2018-03-27T10:17:59.976Z,38.10
2018-03-27T10:19:37.493Z,37.91
2018-03-27T10:20:52.058Z,38.01
2018-03-27T10:21:37.192Z,37.93
2018-03-27T10:24:12.462Z,38.01
2018-03-27T10:25:31.252Z,37.93
2018-03-27T10:26:48.505Z,38.01
2018-03-27T10:27:31.706Z,37.93
2018-03-27T10:30:07.188Z,37.91
2018-03-27T10:31:22.738Z,37.93
2018-03-27T10:32:45.746Z,37.83
2018-03-27T10:33:46.200Z,37.91
2018-03-27T10:35:22.134Z,37.81
2018-03-27T10:36:05.756Z,37.91
2018-03-27T10:37:43.454Z,37.74
2018-03-27T10:39:00.309Z,37.81
2018-03-27T10:40:26.100Z,37.83
2018-03-27T10:41:58.215Z,37.93
2018-03-27T11:10:26.939Z,37.74
2018-03-27T11:11:12.230Z,37.74
2018-03-27T11:12:46.591Z,37.81
2018-03-27T11:14:10.069Z,37.74
2018-03-27T11:16:02.297Z,37.83
2018-03-27T11:16:49.976Z,37.74
2018-03-27T11:18:25.867Z,37.83
2018-03-27T11:19:09.514Z,37.72
2018-03-27T11:20:42.751Z,37.83
2018-03-27T11:21:28.049Z,37.64
2018-03-27T11:23:04.073Z,37.83
2018-03-27T11:24:30.382Z,37.64
2018-03-27T11:26:02.900Z,37.54
2018-03-27T11:27:05.764Z,37.54
2018-03-27T11:28:41.659Z,37.83
2018-03-27T11:29:25.250Z,37.74
2018-03-27T11:30:59.177Z,37.35
2018-03-27T11:32:23.796Z,37.45
2018-03-27T11:33:23.514Z,37.35
2018-03-27T11:37:44.663Z,37.45
2018-03-27T11:38:33.466Z,37.54
2018-03-27T11:40:09.712Z,37.35
2018-03-27T11:40:53.094Z,37.35
2018-03-27T11:42:31.663Z,37.35
2018-03-27T11:43:47.918Z,37.35
2018-03-27T11:44:32.285Z,37.45
2018-03-27T11:46:07.470Z,37.45
2018-03-27T11:46:50.786Z,37.35
2018-03-27T11:48:25.924Z,37.35
2018-03-27T11:49:54.368Z,37.26
2018-03-27T11:51:23.827Z,37.16
2018-03-27T11:53:11.203Z,37.45
2018-03-27T11:54:04.604Z,37.35
2018-03-27T11:55:40.190Z,37.74
2018-03-27T11:57:02.339Z,37.74
